Time;durP1;ratioP1;P1;durP2;ratioP2;P2;SDS_P1;SDS_P2;PMS_P1;PMS_P2;Temp;Humidity;BMP_temperature;BMP_pressure;BME280_temperature;BME280_humidity;BME280_pressure;Samples;Min_cycle;Max_cycle;Signal;HPM_P1;HPM_P2
2024/05/04 00:00:41;;;;;;;11.30;7.90;;;;;;;;;;5460092;27;20002;-85
2024/05/04 00:03:14;;;;;;;12.18;7.70;;;;;;;;;;5460067;27;20006;-85
2024/05/04 00:05:44;;;;;;;11.13;7.78;;;;;;;;;;5461185;27;20424;-86
2024/05/04 00:08:14;;;;;;;14.75;8.23;;;;;;;;;;5460260;27;20004;-86
2024/05/04 00:10:45;;;;;;;10.70;8.00;;;;;;;;;;5430954;27;20448;-86
2024/05/04 00:13:15;;;;;;;11.23;7.47;;;;;;;;;;5459964;27;20001;-86
2024/05/04 00:15:45;;;;;;;14.05;7.55;;;;;;;;;;5460680;27;20006;-85
2024/05/04 00:18:15;;;;;;;10.15;6.70;;;;;;;;;;5460714;27;20002;-86
2024/05/04 00:20:46;;;;;;;10.50;7.18;;;;;;;;;;5461219;27;19998;-86
2024/05/04 00:23:19;;;;;;;10.60;6.32;;;;;;;;;;5461624;27;20010;-86
2024/05/04 00:25:50;;;;;;;14.23;7.45;;;;;;;;;;5459669;27;20002;-86
2024/05/04 00:28:20;;;;;;;9.88;7.15;;;;;;;;;;5446626;27;20018;-86
2024/05/04 00:30:53;;;;;;;12.25;7.18;;;;;;;;;;5462621;27;19994;-85
2024/05/04 00:33:23;;;;;;;10.77;6.75;;;;;;;;;;5462077;27;20013;-85
2024/05/04 00:35:53;;;;;;;11.68;6.95;;;;;;;;;;5446592;27;20002;-84
2024/05/04 00:38:23;;;;;;;8.90;6.13;;;;;;;;;;5461988;27;20183;-84
2024/05/04 00:40:56;;;;;;;11.55;6.43;;;;;;;;;;5462218;27;20392;-85
2024/05/04 00:43:27;;;;;;;10.52;6.13;;;;;;;;;;5461596;27;20006;-84
2024/05/04 00:45:57;;;;;;;9.95;6.60;;;;;;;;;;5461852;27;19998;-85
2024/05/04 00:48:28;;;;;;;9.60;5.55;;;;;;;;;;5462995;27;20064;-84
2024/05/04 00:50:58;;;;;;;9.82;6.22;;;;;;;;;;5461985;27;20073;-86
2024/05/04 00:53:28;;;;;;;7.65;5.47;;;;;;;;;;5462052;27;19998;-85
2024/05/04 00:56:03;;;;;;;8.30;5.65;;;;;;;;;;5460791;27;19998;-85
2024/05/04 00:58:34;;;;;;;8.90;5.00;;;;;;;;;;5449868;27;20013;-85
2024/05/04 01:01:04;;;;;;;7.95;4.97;;;;;;;;;;5446468;27;20551;-84
2024/05/04 01:03:34;;;;;;;10.10;5.07;;;;;;;;;;5445563;27;19998;-85
2024/05/04 01:06:05;;;;;;;10.57;4.53;;;;;;;;;;5462033;27;20065;-85
2024/05/04 01:08:37;;;;;;;6.70;4.22;;;;;;;;;;5461527;27;20084;-86
2024/05/04 01:11:09;;;;;;;6.72;4.53;;;;;;;;;;5461149;27;20018;-85
2024/05/04 01:13:44;;;;;;;7.35;4.35;;;;;;;;;;5463007;27;20067;-85
2024/05/04 01:16:14;;;;;;;12.57;5.15;;;;;;;;;;5435069;27;19998;-84
2024/05/04 01:18:44;;;;;;;8.50;4.60;;;;;;;;;;5465050;27;20340;-85
2024/05/04 01:21:15;;;;;;;8.88;4.18;;;;;;;;;;5464832;27;20073;-84
2024/05/04 01:23:49;;;;;;;7.45;4.40;;;;;;;;;;5450858;27;20072;-86
2024/05/04 01:26:21;;;;;;;7.82;4.38;;;;;;;;;;5465232;27;20002;-86
2024/05/04 01:28:51;;;;;;;11.13;4.43;;;;;;;;;;5465019;27;20019;-85
2024/05/04 01:31:22;;;;;;;8.20;4.40;;;;;;;;;;5464847;27;20002;-85
2024/05/04 01:33:52;;;;;;;6.63;3.45;;;;;;;;;;5464374;27;20360;-85
2024/05/04 01:36:22;;;;;;;8.32;4.63;;;;;;;;;;5464844;27;20445;-86
2024/05/04 01:38:52;;;;;;;7.07;4.55;;;;;;;;;;5461475;27;20014;-86
2024/05/04 01:41:28;;;;;;;8.95;4.43;;;;;;;;;;5464139;27;20087;-84
2024/05/04 01:43:59;;;;;;;9.63;4.90;;;;;;;;;;5448710;27;20017;-84
2024/05/04 01:46:29;;;;;;;8.23;4.45;;;;;;;;;;5439976;27;20018;-84
2024/05/04 01:49:00;;;;;;;8.23;4.50;;;;;;;;;;5462497;27;20007;-84
2024/05/04 01:51:30;;;;;;;6.50;4.18;;;;;;;;;;5452400;27;20014;-84
2024/05/04 01:54:00;;;;;;;9.68;4.43;;;;;;;;;;5462451;27;19990;-84
2024/05/04 01:56:30;;;;;;;10.13;4.15;;;;;;;;;;5462680;27;20006;-84
2024/05/04 01:59:01;;;;;;;8.55;4.68;;;;;;;;;;5462740;27;20484;-84
2024/05/04 02:01:31;;;;;;;7.93;4.35;;;;;;;;;;5462333;27;20022;-84
2024/05/04 02:04:01;;;;;;;10.30;4.60;;;;;;;;;;5461631;27;20348;-84
2024/05/04 02:06:38;;;;;;;10.35;4.75;;;;;;;;;;5461486;27;19998;-83
2024/05/04 02:09:08;;;;;;;10.63;4.70;;;;;;;;;;5461498;27;20009;-84
2024/05/04 02:11:39;;;;;;;7.13;4.90;;;;;;;;;;5462857;27;19999;-83
2024/05/04 02:14:10;;;;;;;7.57;4.70;;;;;;;;;;5462271;27;20018;-83
2024/05/04 02:16:40;;;;;;;6.88;4.70;;;;;;;;;;5461913;27;20077;-83
2024/05/04 02:19:10;;;;;;;6.78;4.60;;;;;;;;;;5462144;27;20010;-83
2024/05/04 02:21:40;;;;;;;6.22;4.25;;;;;;;;;;5461882;27;20065;-83
2024/05/04 02:24:10;;;;;;;8.82;4.22;;;;;;;;;;5461061;27;20006;-83
2024/05/04 02:26:41;;;;;;;9.07;4.88;;;;;;;;;;5462555;27;19994;-84
2024/05/04 02:29:11;;;;;;;10.32;5.13;;;;;;;;;;5462845;27;20009;-84
2024/05/04 02:31:41;;;;;;;8.65;4.57;;;;;;;;;;5461966;27;19998;-83
2024/05/04 02:34:13;;;;;;;10.43;4.43;;;;;;;;;;5462081;27;20001;-83
2024/05/04 02:36:43;;;;;;;6.10;3.83;;;;;;;;;;5462526;27;20010;-84
2024/05/04 02:39:16;;;;;;;7.50;4.13;;;;;;;;;;5461919;27;20016;-83
2024/05/04 02:41:46;;;;;;;6.78;4.05;;;;;;;;;;5461741;27;20010;-83
2024/05/04 02:44:16;;;;;;;6.53;4.28;;;;;;;;;;5461935;27;20314;-83
2024/05/04 02:46:47;;;;;;;8.68;4.03;;;;;;;;;;5462479;27;20002;-83
2024/05/04 02:49:17;;;;;;;6.53;3.70;;;;;;;;;;5445525;27;20013;-84
2024/05/04 02:51:47;;;;;;;8.40;4.00;;;;;;;;;;5461559;27;20328;-83
2024/05/04 02:54:17;;;;;;;7.55;3.90;;;;;;;;;;5461477;27;20404;-83
2024/05/04 02:56:48;;;;;;;8.68;4.32;;;;;;;;;;5445166;27;20009;-84
2024/05/04 02:59:18;;;;;;;7.40;4.05;;;;;;;;;;5461789;27;20006;-84
2024/05/04 03:01:48;;;;;;;8.25;4.00;;;;;;;;;;5460395;27;20341;-84
2024/05/04 03:04:19;;;;;;;8.20;5.03;;;;;;;;;;5461433;27;20293;-84
2024/05/04 03:06:49;;;;;;;7.00;4.57;;;;;;;;;;5461049;27;19994;-84
2024/05/04 03:09:19;;;;;;;6.05;3.88;;;;;;;;;;5461661;27;20013;-84
2024/05/04 03:11:50;;;;;;;8.73;4.45;;;;;;;;;;5461189;27;20453;-84
2024/05/04 03:14:20;;;;;;;8.05;3.67;;;;;;;;;;5461128;27;20357;-84
2024/05/04 03:16:53;;;;;;;7.43;4.05;;;;;;;;;;5461358;27;19995;-84
2024/05/04 03:19:24;;;;;;;6.18;4.05;;;;;;;;;;5460379;27;20493;-84
2024/05/04 03:21:54;;;;;;;9.60;4.15;;;;;;;;;;5445053;27;20010;-84
2024/05/04 03:24:25;;;;;;;10.45;3.70;;;;;;;;;;5460655;27;20429;-84
2024/05/04 03:26:55;;;;;;;7.50;4.38;;;;;;;;;;5445491;27;20084;-84
2024/05/04 03:29:26;;;;;;;9.95;4.32;;;;;;;;;;5461178;27;20002;-84
2024/05/04 03:31:57;;;;;;;7.30;4.10;;;;;;;;;;5461033;27;19998;-84
2024/05/04 03:34:27;;;;;;;7.65;3.60;;;;;;;;;;5460982;27;20002;-84
2024/05/04 03:36:57;;;;;;;6.55;3.40;;;;;;;;;;5460493;27;20071;-83
2024/05/04 03:39:27;;;;;;;8.43;4.40;;;;;;;;;;5460817;27;20333;-84
2024/05/04 03:41:57;;;;;;;7.15;4.03;;;;;;;;;;5460855;27;19998;-84
2024/05/04 03:44:28;;;;;;;7.00;4.18;;;;;;;;;;5460452;27;20001;-84
2024/05/04 03:46:58;;;;;;;8.90;3.83;;;;;;;;;;5461142;27;20009;-84
2024/05/04 03:49:28;;;;;;;7.40;3.80;;;;;;;;;;5460859;27;20001;-84
2024/05/04 03:51:58;;;;;;;6.85;4.07;;;;;;;;;;5444605;27;20076;-83
2024/05/04 03:54:29;;;;;;;9.00;4.03;;;;;;;;;;5460086;27;19995;-83
2024/05/04 03:56:59;;;;;;;9.30;3.90;;;;;;;;;;5443971;27;20013;-84
2024/05/04 03:59:29;;;;;;;11.98;4.43;;;;;;;;;;5460592;27;19991;-84
2024/05/04 04:01:59;;;;;;;9.57;4.60;;;;;;;;;;5443977;27;19998;-84
2024/05/04 04:04:29;;;;;;;5.38;4.10;;;;;;;;;;5460309;27;20046;-84
2024/05/04 04:07:04;;;;;;;8.68;3.92;;;;;;;;;;5483913;21;20017;-83
2024/05/04 04:09:35;;;;;;;5.93;3.95;;;;;;;;;;5497625;27;20017;-84
2024/05/04 04:12:06;;;;;;;8.63;3.80;;;;;;;;;;5497942;27;20005;-83
2024/05/04 04:14:36;;;;;;;5.18;3.78;;;;;;;;;;5497215;27;20004;-84
2024/05/04 04:17:08;;;;;;;8.88;4.90;;;;;;;;;;5496664;26;20345;-84
2024/05/04 04:19:38;;;;;;;9.27;3.90;;;;;;;;;;5497458;27;20005;-84
2024/05/04 04:22:09;;;;;;;9.13;4.13;;;;;;;;;;5496913;27;19998;-84
2024/05/04 04:24:39;;;;;;;8.13;4.50;;;;;;;;;;5466397;27;20004;-84
2024/05/04 04:27:09;;;;;;;12.73;4.50;;;;;;;;;;5496862;26;20002;-84
2024/05/04 04:29:39;;;;;;;6.75;4.30;;;;;;;;;;5497658;27;20072;-84
2024/05/04 04:32:10;;;;;;;6.18;4.20;;;;;;;;;;5495674;27;20076;-84
2024/05/04 04:34:41;;;;;;;5.43;4.22;;;;;;;;;;5466545;27;20407;-84
2024/05/04 04:37:11;;;;;;;5.78;4.43;;;;;;;;;;5496871;26;20070;-83
2024/05/04 04:39:41;;;;;;;7.88;4.30;;;;;;;;;;5496938;27;20183;-83
2024/05/04 04:42:11;;;;;;;8.50;4.60;;;;;;;;;;5496905;27;20095;-84
2024/05/04 04:44:42;;;;;;;9.45;4.72;;;;;;;;;;5496192;27;20053;-84
2024/05/04 04:47:12;;;;;;;7.70;4.80;;;;;;;;;;5497279;26;20008;-84
2024/05/04 04:49:42;;;;;;;9.05;4.32;;;;;;;;;;5469829;27;19997;-84
2024/05/04 04:52:12;;;;;;;9.18;4.35;;;;;;;;;;5500143;27;19998;-84
2024/05/04 04:54:43;;;;;;;8.07;4.75;;;;;;;;;;5500381;27;20360;-84
2024/05/04 04:57:13;;;;;;;10.80;4.47;;;;;;;;;;5469346;27;20016;-84
2024/05/04 04:59:43;;;;;;;7.00;4.32;;;;;;;;;;5470036;27;20020;-84
2024/05/04 05:02:13;;;;;;;6.45;3.90;;;;;;;;;;5499761;27;20070;-84
2024/05/04 05:04:45;;;;;;;8.68;4.15;;;;;;;;;;5499459;27;20339;-84
2024/05/04 05:07:15;;;;;;;5.88;3.65;;;;;;;;;;5485116;26;20041;-84
2024/05/04 05:09:48;;;;;;;6.72;3.58;;;;;;;;;;5499990;27;20013;-84
2024/05/04 05:12:19;;;;;;;5.80;3.47;;;;;;;;;;5502625;27;20020;-82
2024/05/04 05:14:50;;;;;;;10.02;3.47;;;;;;;;;;5505299;27;20022;-83
2024/05/04 05:17:21;;;;;;;4.80;3.25;;;;;;;;;;5505791;26;20005;-85
2024/05/04 05:19:51;;;;;;;7.20;3.20;;;;;;;;;;5505785;27;20525;-85
2024/05/04 05:22:22;;;;;;;8.60;3.00;;;;;;;;;;5504509;27;20013;-85
2024/05/04 05:24:52;;;;;;;4.93;3.10;;;;;;;;;;5474120;27;20526;-85
2024/05/04 05:27:22;;;;;;;4.18;2.78;;;;;;;;;;5502976;26;20030;-85
2024/05/04 05:29:53;;;;;;;6.13;3.00;;;;;;;;;;5503694;27;20000;-86
2024/05/04 05:32:23;;;;;;;6.15;3.63;;;;;;;;;;5472924;27;19994;-85
2024/05/04 05:34:53;;;;;;;4.35;2.70;;;;;;;;;;5472972;27;20409;-85
2024/05/04 05:37:23;;;;;;;6.43;3.17;;;;;;;;;;5471998;27;20040;-85
2024/05/04 05:39:54;;;;;;;7.43;2.80;;;;;;;;;;5501663;27;19994;-86
2024/05/04 05:42:25;;;;;;;5.60;2.97;;;;;;;;;;5501024;27;20001;-84
2024/05/04 05:44:55;;;;;;;3.90;2.63;;;;;;;;;;5500833;27;19993;-86
2024/05/04 05:47:25;;;;;;;5.60;2.78;;;;;;;;;;5500804;26;20494;-86
2024/05/04 05:49:56;;;;;;;5.20;2.97;;;;;;;;;;5470011;27;20358;-85
2024/05/04 05:52:26;;;;;;;6.32;2.80;;;;;;;;;;5500004;27;19997;-86
2024/05/04 05:54:56;;;;;;;4.93;2.67;;;;;;;;;;5499627;27;19993;-86
2024/05/04 05:57:28;;;;;;;7.40;2.83;;;;;;;;;;5500296;26;20002;-86
2024/05/04 05:59:59;;;;;;;6.18;3.42;;;;;;;;;;5499063;27;19993;-84
2024/05/04 06:02:29;;;;;;;6.32;2.72;;;;;;;;;;5470823;27;20076;-85
2024/05/04 06:05:03;;;;;;;4.72;2.63;;;;;;;;;;5500828;27;19990;-84
2024/05/04 06:07:33;;;;;;;7.45;2.72;;;;;;;;;;5500592;26;20008;-83
2024/05/04 06:10:04;;;;;;;5.47;2.63;;;;;;;;;;5500275;27;19994;-84
2024/05/04 06:12:34;;;;;;;6.80;2.70;;;;;;;;;;5501681;27;19994;-83
2024/05/04 06:15:07;;;;;;;9.40;3.00;;;;;;;;;;5502563;27;20005;-85
2024/05/04 06:17:40;;;;;;;4.97;2.63;;;;;;;;;;5502612;26;20010;-84
2024/05/04 06:20:10;;;;;;;6.75;2.80;;;;;;;;;;5502799;27;20482;-84
2024/05/04 06:22:41;;;;;;;6.43;2.80;;;;;;;;;;5502282;27;19997;-85
2024/05/04 06:25:11;;;;;;;5.53;2.60;;;;;;;;;;5471906;27;19990;-85
2024/05/04 06:27:42;;;;;;;6.50;2.58;;;;;;;;;;5471901;27;19998;-85
2024/05/04 06:30:13;;;;;;;6.93;2.90;;;;;;;;;;5501976;27;20006;-85
2024/05/04 06:32:43;;;;;;;7.72;2.83;;;;;;;;;;5501968;27;20403;-85
2024/05/04 06:35:13;;;;;;;4.40;2.50;;;;;;;;;;5502331;27;20013;-86
2024/05/04 06:37:46;;;;;;;4.68;2.50;;;;;;;;;;5501032;26;19997;-86
2024/05/04 06:40:16;;;;;;;4.70;2.40;;;;;;;;;;5501279;27;20061;-86
2024/05/04 06:42:46;;;;;;;4.15;2.33;;;;;;;;;;5500779;27;20452;-84
2024/05/04 06:45:17;;;;;;;5.03;2.63;;;;;;;;;;5502938;27;20040;-84
2024/05/04 06:47:47;;;;;;;7.38;2.28;;;;;;;;;;5471290;27;20006;-85
2024/05/04 06:50:17;;;;;;;4.13;2.60;;;;;;;;;;5499743;27;20415;-85
2024/05/04 06:52:51;;;;;;;5.30;2.13;;;;;;;;;;5499422;27;20004;-86
2024/05/04 06:55:21;;;;;;;6.30;2.30;;;;;;;;;;5498710;27;20415;-84
2024/05/04 06:57:54;;;;;;;5.53;2.40;;;;;;;;;;5500482;26;20006;-85
2024/05/04 07:00:25;;;;;;;5.47;2.50;;;;;;;;;;5500594;27;20394;-86
2024/05/04 07:02:55;;;;;;;7.28;2.30;;;;;;;;;;5470081;27;20009;-86
2024/05/04 07:05:25;;;;;;;5.55;2.22;;;;;;;;;;5499729;27;19997;-86
2024/05/04 07:07:55;;;;;;;7.43;2.38;;;;;;;;;;5500091;26;19998;-84
2024/05/04 07:10:26;;;;;;;3.65;2.00;;;;;;;;;;5498812;27;19989;-83
2024/05/04 07:12:56;;;;;;;8.27;2.17;;;;;;;;;;5498804;27;20021;-85
2024/05/04 07:15:26;;;;;;;5.38;2.20;;;;;;;;;;5499172;27;19993;-85
2024/05/04 07:17:57;;;;;;;4.07;2.00;;;;;;;;;;5498060;26;19994;-86
2024/05/04 07:20:27;;;;;;;5.53;2.40;;;;;;;;;;5468906;27;19994;-86
2024/05/04 07:22:57;;;;;;;4.72;2.38;;;;;;;;;;5499001;27;20010;-87
2024/05/04 07:25:28;;;;;;;4.10;2.13;;;;;;;;;;5497872;27;20005;-86
2024/05/04 07:27:58;;;;;;;5.13;2.10;;;;;;;;;;5495774;26;20343;-85
2024/05/04 07:30:28;;;;;;;3.75;2.25;;;;;;;;;;5495872;27;19993;-84
2024/05/04 07:32:59;;;;;;;5.10;2.20;;;;;;;;;;5495972;27;20071;-84
2024/05/04 07:35:29;;;;;;;5.55;2.00;;;;;;;;;;5497851;27;20341;-86
2024/05/04 07:37:59;;;;;;;8.02;2.45;;;;;;;;;;5498434;26;19994;-86
2024/05/04 07:40:30;;;;;;;3.78;2.50;;;;;;;;;;5499208;27;20005;-86
2024/05/04 07:43:00;;;;;;;8.35;2.30;;;;;;;;;;5498936;27;19990;-86
2024/05/04 07:45:30;;;;;;;5.90;2.10;;;;;;;;;;5498777;27;20336;-86
2024/05/04 07:48:03;;;;;;;5.93;2.25;;;;;;;;;;5496860;26;19998;-86
2024/05/04 07:50:33;;;;;;;3.47;2.00;;;;;;;;;;5496179;27;19989;-85
2024/05/04 07:53:04;;;;;;;6.25;2.38;;;;;;;;;;5495724;27;20451;-85
2024/05/04 07:55:37;;;;;;;4.32;2.08;;;;;;;;;;5465735;27;19996;-85
2024/05/04 07:58:07;;;;;;;4.80;2.50;;;;;;;;;;5495978;26;20004;-84
2024/05/04 08:00:37;;;;;;;8.32;2.20;;;;;;;;;;5495579;27;19990;-85
2024/05/04 08:03:08;;;;;;;7.35;2.50;;;;;;;;;;5465151;27;19994;-85
2024/05/04 08:05:38;;;;;;;5.85;2.03;;;;;;;;;;5466131;27;19997;-84
2024/05/04 08:08:08;;;;;;;3.17;2.03;;;;;;;;;;5495360;26;20001;-86
2024/05/04 08:10:39;;;;;;;5.57;1.90;;;;;;;;;;5496126;27;20422;-85
2024/05/04 08:13:09;;;;;;;3.87;2.00;;;;;;;;;;5465249;27;20005;-86
2024/05/04 08:15:39;;;;;;;5.20;1.77;;;;;;;;;;5495623;27;20012;-86
2024/05/04 08:18:16;;;;;;;1.67;1.45;;;;;;;;;;5465803;27;20057;-85
2024/05/04 08:20:46;;;;;;;2.03;1.55;;;;;;;;;;5495449;27;20406;-85
2024/05/04 08:23:16;;;;;;;1.70;1.43;;;;;;;;;;5495200;27;19998;-85
2024/05/04 08:25:48;;;;;;;5.77;1.77;;;;;;;;;;5495077;27;19993;-84
2024/05/04 08:28:18;;;;;;;2.42;1.50;;;;;;;;;;5495765;26;20415;-85
2024/05/04 08:30:49;;;;;;;3.28;1.55;;;;;;;;;;5495320;27;20001;-85
2024/05/04 08:33:19;;;;;;;2.03;1.42;;;;;;;;;;5495287;27;19998;-84
2024/05/04 08:35:49;;;;;;;2.73;1.50;;;;;;;;;;5495465;27;20459;-86
2024/05/04 08:38:19;;;;;;;2.70;1.33;;;;;;;;;;5465295;27;20009;-85
2024/05/04 08:40:50;;;;;;;2.92;1.63;;;;;;;;;;5495527;27;20009;-85
2024/05/04 08:43:21;;;;;;;3.73;1.73;;;;;;;;;;5494633;27;20004;-85
2024/05/04 08:45:52;;;;;;;3.20;1.50;;;;;;;;;;5464377;27;20001;-86
2024/05/04 08:48:22;;;;;;;3.47;1.73;;;;;;;;;;5494369;26;19990;-85
2024/05/04 08:50:53;;;;;;;3.50;1.77;;;;;;;;;;5494730;27;20013;-87
2024/05/04 08:53:23;;;;;;;7.30;1.97;;;;;;;;;;5464328;27;20001;-85
2024/05/04 08:55:57;;;;;;;8.57;2.27;;;;;;;;;;5494532;27;19994;-84
2024/05/04 08:58:27;;;;;;;3.72;1.70;;;;;;;;;;5493879;26;20377;-85
2024/05/04 09:00:57;;;;;;;3.03;1.80;;;;;;;;;;5463147;27;19994;-86
2024/05/04 09:03:28;;;;;;;2.47;1.50;;;;;;;;;;5463362;27;20017;-86
2024/05/04 09:05:58;;;;;;;3.57;1.80;;;;;;;;;;5493779;27;19985;-85
2024/05/04 09:08:28;;;;;;;2.60;1.70;;;;;;;;;;5463524;27;20001;-85
2024/05/04 09:10:59;;;;;;;2.80;1.43;;;;;;;;;;5494037;27;20461;-85
2024/05/04 09:13:29;;;;;;;4.17;1.57;;;;;;;;;;5463142;27;20080;-85
2024/05/04 09:15:59;;;;;;;2.03;1.40;;;;;;;;;;5493508;27;20000;-86
2024/05/04 09:18:31;;;;;;;1.83;1.43;;;;;;;;;;5493447;26;20005;-85
2024/05/04 09:21:02;;;;;;;2.97;1.60;;;;;;;;;;5494078;27;20005;-85
2024/05/04 09:23:32;;;;;;;2.57;1.40;;;;;;;;;;5493258;27;20075;-86
2024/05/04 09:26:02;;;;;;;3.83;1.70;;;;;;;;;;5463007;27;20009;-87
2024/05/04 09:28:33;;;;;;;2.80;1.47;;;;;;;;;;5493646;26;20369;-85
2024/05/04 09:31:03;;;;;;;3.07;1.40;;;;;;;;;;5493361;27;20452;-85
2024/05/04 09:33:33;;;;;;;3.53;1.77;;;;;;;;;;5493431;27;19998;-85
2024/05/04 09:36:05;;;;;;;5.03;1.80;;;;;;;;;;5496641;27;19997;-84
2024/05/04 09:38:45;;;;;;;5.15;1.60;;;;;;;;;;5496865;26;20005;-85
2024/05/04 09:41:17;;;;;;;2.10;1.33;;;;;;;;;;5466683;27;20008;-86
2024/05/04 09:43:47;;;;;;;1.65;1.35;;;;;;;;;;5466385;27;20001;-86
2024/05/04 09:46:19;;;;;;;2.73;1.37;;;;;;;;;;5496985;27;20072;-86
2024/05/04 09:48:50;;;;;;;3.53;1.67;;;;;;;;;;5497732;26;20013;-86
2024/05/04 09:51:21;;;;;;;2.33;1.40;;;;;;;;;;5496913;27;20008;-85
2024/05/04 09:53:51;;;;;;;3.20;1.60;;;;;;;;;;5496011;27;19998;-85
2024/05/04 09:56:22;;;;;;;3.07;1.40;;;;;;;;;;5496553;27;20089;-86
2024/05/04 09:58:52;;;;;;;2.97;1.50;;;;;;;;;;5467136;27;20001;-85
2024/05/04 10:01:23;;;;;;;3.30;1.57;;;;;;;;;;5466322;27;20079;-85
2024/05/04 10:03:55;;;;;;;1.88;1.40;;;;;;;;;;5466136;27;20009;-85
2024/05/04 10:06:26;;;;;;;3.42;1.40;;;;;;;;;;5466430;27;20005;-86
2024/05/04 10:08:56;;;;;;;4.00;1.40;;;;;;;;;;5497470;26;20000;-85
2024/05/04 10:11:29;;;;;;;3.50;1.37;;;;;;;;;;5497043;27;20368;-84
2024/05/04 10:14:00;;;;;;;3.83;1.40;;;;;;;;;;5466318;27;19994;-86
2024/05/04 10:16:30;;;;;;;4.07;1.33;;;;;;;;;;5496119;27;19993;-85
2024/05/04 10:19:00;;;;;;;2.60;1.00;;;;;;;;;;5467023;27;20008;-85
2024/05/04 10:21:31;;;;;;;4.37;1.50;;;;;;;;;;5468214;27;20008;-85
2024/05/04 10:24:01;;;;;;;4.27;1.20;;;;;;;;;;5467506;27;20464;-85
2024/05/04 10:26:32;;;;;;;2.17;1.10;;;;;;;;;;5497577;27;19993;-85
2024/05/04 10:29:04;;;;;;;2.33;1.20;;;;;;;;;;5466935;27;19998;-85
2024/05/04 10:31:35;;;;;;;1.33;1.10;;;;;;;;;;5465949;27;19997;-86
2024/05/04 10:34:05;;;;;;;4.55;1.40;;;;;;;;;;5497354;27;20008;-85
2024/05/04 10:36:35;;;;;;;2.73;1.30;;;;;;;;;;5466458;26;19998;-86
2024/05/04 10:39:05;;;;;;;5.37;1.23;;;;;;;;;;5497157;27;20005;-84
2024/05/04 10:41:36;;;;;;;3.40;1.40;;;;;;;;;;5496942;27;19994;-85
2024/05/04 10:44:06;;;;;;;2.33;1.33;;;;;;;;;;5466690;27;20005;-85
2024/05/04 10:46:37;;;;;;;5.00;1.27;;;;;;;;;;5466336;26;20005;-85
2024/05/04 10:49:07;;;;;;;1.73;1.30;;;;;;;;;;5497890;27;20002;-85
2024/05/04 10:51:37;;;;;;;2.00;1.17;;;;;;;;;;5500371;27;19990;-86
2024/05/04 10:54:07;;;;;;;4.43;1.00;;;;;;;;;;5473408;27;20555;-85
2024/05/04 10:56:38;;;;;;;3.27;1.20;;;;;;;;;;5503716;26;20510;-86
2024/05/04 10:59:08;;;;;;;2.50;1.10;;;;;;;;;;5503921;27;19993;-86
2024/05/04 11:01:40;;;;;;;2.97;1.20;;;;;;;;;;5474179;27;19998;-86
2024/05/04 11:04:10;;;;;;;3.70;1.50;;;;;;;;;;5502555;27;20012;-85
2024/05/04 11:06:41;;;;;;;2.27;1.43;;;;;;;;;;5499794;26;19998;-85
2024/05/04 11:09:12;;;;;;;3.57;1.70;;;;;;;;;;5500153;27;20413;-85
2024/05/04 11:11:42;;;;;;;2.43;1.40;;;;;;;;;;5499307;27;19997;-85
2024/05/04 11:14:12;;;;;;;4.53;1.63;;;;;;;;;;5500023;27;20224;-85
2024/05/04 11:16:43;;;;;;;4.67;1.70;;;;;;;;;;5469432;26;20091;-85
2024/05/04 11:19:13;;;;;;;3.33;1.33;;;;;;;;;;5469376;27;19998;-85
2024/05/04 11:21:44;;;;;;;3.47;1.40;;;;;;;;;;5499498;27;19990;-85
2024/05/04 11:24:14;;;;;;;4.00;1.50;;;;;;;;;;5498929;27;20025;-85
2024/05/04 11:26:44;;;;;;;4.70;1.63;;;;;;;;;;5499617;26;19996;-84
2024/05/04 11:29:15;;;;;;;5.77;1.63;;;;;;;;;;5469161;27;20076;-85
2024/05/04 11:31:45;;;;;;;5.03;1.60;;;;;;;;;;5499023;27;20325;-85
2024/05/04 11:34:15;;;;;;;3.90;1.30;;;;;;;;;;5498489;27;19994;-85
2024/05/04 11:36:46;;;;;;;2.83;1.63;;;;;;;;;;5498881;26;19993;-85
2024/05/04 11:39:16;;;;;;;3.80;1.57;;;;;;;;;;5498575;27;19994;-85
2024/05/04 11:41:46;;;;;;;4.77;1.70;;;;;;;;;;5498339;27;20333;-84
2024/05/04 11:44:17;;;;;;;9.70;4.50;;;;;;;;;;5497680;27;19989;-85
2024/05/04 11:46:47;;;;;;;2.80;1.70;;;;;;;;;;5497320;26;19993;-84
2024/05/04 11:49:17;;;;;;;6.17;2.60;;;;;;;;;;5497543;27;20029;-84
2024/05/04 11:51:47;;;;;;;9.47;2.53;;;;;;;;;;5497162;27;19994;-84
2024/05/04 11:54:17;;;;;;;6.57;1.70;;;;;;;;;;5497446;27;19994;-85
2024/05/04 11:56:48;;;;;;;6.80;1.60;;;;;;;;;;5495745;26;20004;-85
2024/05/04 11:59:21;;;;;;;5.23;2.10;;;;;;;;;;5497139;27;19994;-85
2024/05/04 12:01:51;;;;;;;4.75;1.70;;;;;;;;;;5497540;27;20332;-85
2024/05/04 12:04:21;;;;;;;4.03;1.80;;;;;;;;;;5466798;27;20004;-85
2024/05/04 12:06:52;;;;;;;9.73;5.03;;;;;;;;;;5496765;26;20068;-85
2024/05/04 12:09:22;;;;;;;7.60;2.20;;;;;;;;;;5496614;27;20378;-84
2024/05/04 12:11:52;;;;;;;4.60;1.53;;;;;;;;;;5496579;27;20000;-85
2024/05/04 12:14:22;;;;;;;4.57;1.40;;;;;;;;;;5496030;27;20259;-85
2024/05/04 12:16:53;;;;;;;5.40;1.90;;;;;;;;;;5466385;26;19994;-85
2024/05/04 12:19:23;;;;;;;6.40;2.40;;;;;;;;;;5496403;27;19994;-85
2024/05/04 12:21:53;;;;;;;6.70;1.80;;;;;;;;;;5499437;27;19989;-85
2024/05/04 12:24:23;;;;;;;3.43;1.50;;;;;;;;;;5471764;27;20009;-85
2024/05/04 12:26:53;;;;;;;3.60;1.50;;;;;;;;;;5501853;26;20000;-86
2024/05/04 12:29:24;;;;;;;3.13;1.60;;;;;;;;;;5500701;27;20018;-85
2024/05/04 12:31:54;;;;;;;5.93;1.33;;;;;;;;;;5501799;27;19990;-85
2024/05/04 12:34:24;;;;;;;2.93;1.20;;;;;;;;;;5502356;27;20448;-85
2024/05/04 12:36:54;;;;;;;3.17;1.40;;;;;;;;;;5499115;26;20067;-85
2024/05/04 12:39:25;;;;;;;1.63;1.10;;;;;;;;;;5496108;27;20010;-85
2024/05/04 12:41:55;;;;;;;4.23;1.13;;;;;;;;;;5495097;27;20008;-85
2024/05/04 12:44:25;;;;;;;3.60;1.33;;;;;;;;;;5493871;27;20001;-86
2024/05/04 12:47:28;;;;;;;;;;;;;;;;;;;;;
2024/05/04 12:49:59;;;;;;;4.43;1.40;;;;;;;;;;5487302;27;19998;-81
2024/05/04 12:52:29;;;;;;;4.67;1.70;;;;;;;;;;5496449;27;20000;-83
2024/05/04 12:54:59;;;;;;;6.93;1.70;;;;;;;;;;5498014;27;20329;-83
2024/05/04 12:57:29;;;;;;;3.95;1.30;;;;;;;;;;5497831;26;20004;-83
2024/05/04 13:00:00;;;;;;;3.63;1.57;;;;;;;;;;5497192;27;20290;-83
2024/05/04 13:02:30;;;;;;;4.57;1.60;;;;;;;;;;5496889;27;20367;-83
2024/05/04 13:05:00;;;;;;;3.08;1.50;;;;;;;;;;5496176;27;20458;-83
2024/05/04 13:07:30;;;;;;;6.27;2.00;;;;;;;;;;5495847;26;20339;-83
2024/05/04 13:10:01;;;;;;;3.80;1.83;;;;;;;;;;5498453;27;20339;-83
2024/05/04 13:12:31;;;;;;;4.47;1.60;;;;;;;;;;5500409;27;19993;-83
2024/05/04 13:15:01;;;;;;;2.92;1.30;;;;;;;;;;5499971;27;20333;-83
2024/05/04 13:17:31;;;;;;;4.78;1.70;;;;;;;;;;5499910;26;20000;-82
2024/05/04 13:20:02;;;;;;;2.85;1.65;;;;;;;;;;5500098;27;20004;-80
2024/05/04 13:22:32;;;;;;;3.33;1.42;;;;;;;;;;5499552;27;19990;-81
2024/05/04 13:25:02;;;;;;;7.47;1.67;;;;;;;;;;5497976;27;20001;-83
2024/05/04 13:27:32;;;;;;;4.55;1.38;;;;;;;;;;5468513;27;20399;-82
2024/05/04 13:30:03;;;;;;;2.70;1.30;;;;;;;;;;5498755;27;19990;-82
2024/05/04 13:32:33;;;;;;;6.32;1.80;;;;;;;;;;5498591;27;20276;-83
2024/05/04 13:35:04;;;;;;;8.85;1.77;;;;;;;;;;5498435;27;20008;-83
2024/05/04 13:37:34;;;;;;;4.95;1.80;;;;;;;;;;5499436;26;20040;-83
2024/05/04 13:40:04;;;;;;;6.45;1.50;;;;;;;;;;5499155;27;20071;-83
2024/05/04 13:42:35;;;;;;;2.10;1.30;;;;;;;;;;5499233;27;19993;-82
2024/05/04 13:45:05;;;;;;;4.28;1.45;;;;;;;;;;5497006;27;20344;-81
2024/05/04 13:47:35;;;;;;;2.90;1.60;;;;;;;;;;5498871;26;20479;-82
2024/05/04 13:50:06;;;;;;;2.53;1.60;;;;;;;;;;5499750;27;20292;-83
2024/05/04 13:52:36;;;;;;;3.28;1.80;;;;;;;;;;5500714;27;19998;-83
2024/05/04 13:55:08;;;;;;;6.10;2.28;;;;;;;;;;5501732;27;20066;-84
2024/05/04 13:57:38;;;;;;;;;;;;;;;;;;5473014;27;19998;-83
2024/05/04 14:00:09;;;;;;;2.55;1.65;;;;;;;;;;5502931;27;19933;-84
2024/05/04 14:02:39;;;;;;;3.35;1.42;;;;;;;;;;5471978;27;20240;-81
2024/05/04 14:05:09;;;;;;;2.45;1.42;;;;;;;;;;5504250;27;20005;-83
2024/05/04 14:07:40;;;;;;;2.63;1.48;;;;;;;;;;5505013;26;20004;-82
2024/05/04 14:10:10;;;;;;;2.78;1.60;;;;;;;;;;5505019;27;20388;-83
2024/05/04 14:12:40;;;;;;;2.65;2.00;;;;;;;;;;5503654;27;20005;-83
2024/05/04 14:15:10;;;;;;;4.35;2.05;;;;;;;;;;5474503;27;20335;-84
2024/05/04 14:17:41;;;;;;;5.93;2.60;;;;;;;;;;5504973;26;19993;-84
2024/05/04 14:20:16;;;;;;;6.93;3.00;;;;;;;;;;5503524;27;20341;-84
2024/05/04 14:22:46;;;;;;;3.35;1.60;;;;;;;;;;5471587;27;20018;-82
2024/05/04 14:25:23;;;;;;;1.87;1.60;;;;;;;;;;5472061;27;20005;-84
2024/05/04 14:27:53;;;;;;;3.15;1.30;;;;;;;;;;5472452;27;20348;-84
2024/05/04 14:30:23;;;;;;;3.83;1.97;;;;;;;;;;5502383;27;20041;-84
2024/05/04 14:32:53;;;;;;;6.90;2.20;;;;;;;;;;5501609;27;20376;-84
2024/05/04 14:35:24;;;;;;;1.97;1.03;;;;;;;;;;5474894;27;20001;-85
2024/05/04 14:37:54;;;;;;;2.73;1.60;;;;;;;;;;5504058;26;19990;-85
2024/05/04 14:40:24;;;;;;;2.87;1.50;;;;;;;;;;5464370;27;20010;-85
2024/05/04 14:42:55;;;;;;;3.73;1.90;;;;;;;;;;5463927;27;19998;-83
2024/05/04 14:45:25;;;;;;;3.17;1.93;;;;;;;;;;5460934;27;20004;-83
2024/05/04 14:47:55;;;;;;;2.10;1.57;;;;;;;;;;5461041;27;20006;-84
2024/05/04 14:50:25;;;;;;;3.53;1.60;;;;;;;;;;5431589;27;20005;-83
2024/05/04 14:52:56;;;;;;;1.93;1.30;;;;;;;;;;5459961;27;19994;-83
2024/05/04 14:55:26;;;;;;;3.10;1.70;;;;;;;;;;5459378;27;19997;-83
2024/05/04 14:57:58;;;;;;;2.23;1.30;;;;;;;;;;5460397;27;20435;-84
2024/05/04 15:00:28;;;;;;;2.35;1.50;;;;;;;;;;5461498;27;20002;-83
2024/05/04 15:02:58;;;;;;;3.90;1.70;;;;;;;;;;5460603;27;20879;-83